Hartford, Connecticut
Traffic Map
Current Weather Conditions
Hartford, Connecticut
Overcast
Overcast
67°
Feels Like: 67°
Wind Chill: 67° Ceiling: 3100
Heat Index: 67° Visibility: 10mi
Dew Point: 63° Wind: 0mph
Humidity: 87% Direction: ° ()
Pressure: 30.05in Gusts: 0mph
Raw Report DataKHFD 220753Z 00000KT 10SM BKN031 BKN049 OVC055 19/17 A3005 RMK AO2 SLP175 T01940172
Traffic Incident Summary
Active as of:
Severity:
Category:
InformationThere was an issue retrieving the traffic information for this location. Please try a different location or try again shortly.
Advertisements
Track Severe Weather on mobile